Portada
METAR-TAF:

METAR-TAF

Aeroports :

Eastern Slopes Regional Airport

Fryeburg, Maine, Estats Units d'Amèrica

latitud: 43-59-21N, longitud: 070-57-01W, altitud: 137 m

Observació

L'informe es va fer fa 59 minuts, a les 11:54 UTC
Vent calma
Temperatura 17°C
Humitat 94%
Pressió 1017 hPa
Visibilitat: 16.1 km
Cel cobert a una alçada de 700 ft

METAR: KIZG 261154Z AUTO 00000KT 10SM OVC007 17/16 A3003 RMK AO2 SLP169 70068 T01720156 10178 20161 51011

Hora: 08:53 (12:53 UTC)


TAF: manca

Observacions i pronòstics meteorològics de més de 4000 aeroports (METAR i TAF).

Les estacions disponibles són els punts grocs i vermells al mapa.

Posi el ratolí al punt desitjat per veure el nom de l'estació.

Feu clic per veure les observacions i els pronòstics meteorològics.

Per canviar el mapa: feu clic els botons verds amb una creu de color negre per apropar; al botó verd amb un guió per allunyar la imatge; o en les fletxes verdes per a mapes adjacents.


METAR-TAF: